createdAt,value
2019-05-25T00:00:22.610Z,100059.50
2019-05-25T00:02:54.816Z,100049.69
2019-05-25T00:05:26.692Z,100052.47
2019-05-25T00:07:59.074Z,100059.23
2019-05-25T00:10:30.939Z,100053.36
2019-05-25T00:13:02.768Z,100047.02
2019-05-25T00:15:34.554Z,100049.11
2019-05-25T00:18:06.426Z,100042.94
2019-05-25T00:20:38.225Z,100044.86
2019-05-25T00:23:10.686Z,100045.17
2019-05-25T00:25:42.477Z,100044.45
2019-05-25T00:28:14.685Z,100041.39
2019-05-25T00:30:46.517Z,100043.63
2019-05-25T00:33:18.529Z,100036.31
2019-05-25T00:35:51.956Z,100040.56
2019-05-25T00:38:23.913Z,100037.99
2019-05-25T00:40:55.709Z,100035.29
2019-05-25T00:43:27.525Z,100038.70
2019-05-25T00:45:59.304Z,100031.67
2019-05-25T00:48:32.889Z,100035.05
2019-05-25T00:51:04.670Z,100031.16
2019-05-25T00:53:36.876Z,100034.20
2019-05-25T00:56:09.813Z,100031.01
2019-05-25T00:58:41.826Z,100033.72
2019-05-25T01:01:14.534Z,100028.77
2019-05-25T01:03:46.593Z,100031.13
2019-05-25T01:06:18.362Z,100033.21
2019-05-25T01:08:50.717Z,100041.34
2019-05-25T01:11:22.493Z,100030.34
2019-05-25T01:13:54.381Z,100031.09
2019-05-25T01:16:26.141Z,100030.92
2019-05-25T01:18:58.160Z,100032.31
2019-05-25T01:21:30.037Z,100035.97
2019-05-25T01:24:02.395Z,100027.73
2019-05-25T01:26:34.465Z,100032.02
2019-05-25T01:29:06.515Z,100029.06
2019-05-25T01:31:38.316Z,100027.66
2019-05-25T01:34:10.159Z,100028.10
2019-05-25T01:36:41.933Z,100028.61
2019-05-25T01:39:14.053Z,100022.88
2019-05-25T01:41:45.798Z,100027.72
2019-05-25T01:44:17.901Z,100027.52
2019-05-25T01:46:49.695Z,100033.22
2019-05-25T01:49:22.136Z,100036.23
2019-05-25T01:51:53.990Z,100032.31
2019-05-25T01:54:26.358Z,100043.01
2019-05-25T01:56:58.138Z,100036.69
2019-05-25T01:59:30.399Z,100040.32
2019-05-25T02:02:02.218Z,100040.33
2019-05-25T02:04:34.523Z,100039.74
2019-05-25T02:07:06.611Z,100031.95
2019-05-25T02:09:38.997Z,100035.11
2019-05-25T02:12:10.971Z,100035.48
2019-05-25T02:14:42.760Z,100041.95
2019-05-25T02:17:14.562Z,100040.91
2019-05-25T02:19:46.306Z,100044.03
2019-05-25T02:22:19.378Z,100038.66
2019-05-25T02:24:51.707Z,100038.78
2019-05-25T02:27:23.779Z,100032.30
2019-05-25T02:29:55.583Z,100036.28
2019-05-25T02:32:27.377Z,100030.80
2019-05-25T02:34:59.421Z,100030.55
2019-05-25T02:37:31.261Z,100034.73
2019-05-25T02:40:03.555Z,100030.69
2019-05-25T02:42:35.823Z,100031.91
2019-05-25T02:45:08.671Z,100040.39
2019-05-25T02:47:41.491Z,100037.66
2019-05-25T02:50:13.658Z,100040.53
2019-05-25T02:52:45.493Z,100041.02
2019-05-25T02:55:32.844Z,100039.33
2019-05-25T02:57:52.090Z,100045.58
2019-05-25T03:00:34.012Z,100039.56
2019-05-25T03:03:07.273Z,100045.81
2019-05-25T03:05:39.216Z,100044.98
2019-05-25T03:08:11.092Z,100047.96
2019-05-25T03:10:44.331Z,100046.64
2019-05-25T03:13:16.920Z,100049.39
2019-05-25T03:15:48.976Z,100048.20
2019-05-25T03:18:20.773Z,100052.64
2019-05-25T03:20:52.895Z,100054.67
2019-05-25T03:23:24.642Z,100047.25
2019-05-25T03:26:00.713Z,100051.91
2019-05-25T03:28:32.483Z,100052.17
2019-05-25T03:31:04.298Z,100053.83
2019-05-25T03:33:36.062Z,100062.70
2019-05-25T03:36:07.912Z,100061.14
2019-05-25T03:38:39.682Z,100060.91
2019-05-25T03:41:11.875Z,100066.28
2019-05-25T03:43:43.642Z,100068.06
2019-05-25T03:46:15.525Z,100063.27
2019-05-25T03:48:47.395Z,100065.42
2019-05-25T03:51:19.356Z,100071.16
2019-05-25T03:53:51.189Z,100073.66
2019-05-25T03:56:23.154Z,100074.13
2019-05-25T03:58:55.014Z,100075.20
2019-05-25T04:01:26.845Z,100077.33
2019-05-25T04:03:58.601Z,100082.36
2019-05-25T04:06:30.414Z,100091.23
2019-05-25T04:09:02.166Z,100086.17
2019-05-25T04:11:34.541Z,100084.36
2019-05-25T04:14:06.471Z,100080.19
2019-05-25T04:16:38.309Z,100079.33
2019-05-25T04:19:10.073Z,100083.75
2019-05-25T04:21:42.174Z,100076.99
2019-05-25T04:24:18.386Z,100077.58
2019-05-25T04:26:51.778Z,100080.17
2019-05-25T04:29:23.563Z,100082.32
2019-05-25T04:31:55.666Z,100082.16
2019-05-25T04:34:27.492Z,100085.75
2019-05-25T04:36:59.590Z,100091.02
2019-05-25T04:39:31.361Z,100092.22
2019-05-25T04:42:03.548Z,100081.73
2019-05-25T04:44:35.357Z,100081.23
2019-05-25T04:47:07.202Z,100081.77
2019-05-25T04:49:39.133Z,100083.20
2019-05-25T04:52:10.949Z,100091.28
2019-05-25T04:54:42.764Z,100092.80
2019-05-25T04:57:15.049Z,100101.61
2019-05-25T04:59:46.863Z,100104.39
2019-05-25T05:02:18.932Z,100098.06
2019-05-25T05:04:50.701Z,100102.20
2019-05-25T05:07:22.754Z,100099.43
2019-05-25T05:10:02.637Z,100104.46
2019-05-25T05:12:28.405Z,100107.28
2019-05-25T05:15:00.218Z,100109.80
2019-05-25T05:17:32.238Z,100109.77
2019-05-25T05:20:06.499Z,100105.69
2019-05-25T05:22:38.544Z,100109.03
2019-05-25T05:25:11.690Z,100116.92
2019-05-25T05:27:44.609Z,100118.76
2019-05-25T05:30:16.590Z,100117.51
2019-05-25T05:32:48.616Z,100113.08
2019-05-25T05:35:20.590Z,100110.48
2019-05-25T05:37:53.137Z,100114.59
2019-05-25T05:40:26.607Z,100111.57
2019-05-25T05:43:03.355Z,100109.28
2019-05-25T05:45:38.995Z,100106.66
2019-05-25T05:48:14.311Z,100103.05
2019-05-25T05:50:49.654Z,100105.31
2019-05-25T05:53:26.082Z,100106.50
2019-05-25T05:55:57.911Z,100106.10
2019-05-25T05:58:30.175Z,100109.03
2019-05-25T06:01:02.061Z,100109.00
2019-05-25T06:14:42.379Z,100114.56
2019-05-25T06:17:14.156Z,100107.49
2019-05-25T06:19:46.181Z,100105.19
2019-05-25T06:22:17.928Z,100106.53
2019-05-25T06:24:50.023Z,100104.17
2019-05-25T06:27:27.563Z,100103.31
2019-05-25T06:29:55.317Z,100101.73
2019-05-25T06:32:27.222Z,100107.63
2019-05-25T06:34:59.231Z,100105.42
2019-05-25T06:37:31.051Z,100102.69
2019-05-25T06:40:03.062Z,100104.49
2019-05-25T06:42:34.992Z,100097.98
2019-05-25T06:45:08.333Z,100097.69
2019-05-25T06:47:40.232Z,100101.46
2019-05-25T06:50:13.034Z,100101.27
2019-05-25T06:52:45.095Z,100101.81
2019-05-25T06:55:17.005Z,100102.09
2019-05-25T06:57:49.253Z,100102.63
2019-05-25T07:00:23.534Z,100106.67
2019-05-25T07:02:55.372Z,100103.55
2019-05-25T07:05:27.517Z,100109.54
2019-05-25T07:07:59.334Z,100109.59
2019-05-25T07:10:31.231Z,100107.91
2019-05-25T07:13:03.640Z,100115.25
2019-05-25T07:15:35.513Z,100106.57
2019-05-25T07:18:07.466Z,100112.04
2019-05-25T07:20:39.777Z,100100.04
2019-05-25T07:23:11.700Z,100102.16
2019-05-25T07:25:43.710Z,100100.83
2019-05-25T07:28:15.637Z,100098.93
2019-05-25T07:30:47.696Z,100105.61
2019-05-25T07:33:19.514Z,100100.41
2019-05-25T07:35:51.467Z,100106.44
2019-05-25T07:38:23.217Z,100107.16
2019-05-25T07:40:55.164Z,100112.19
2019-05-25T07:43:28.008Z,100111.18
2019-05-25T07:45:59.889Z,100115.22
2019-05-25T07:48:31.790Z,100113.61
2019-05-25T07:51:04.177Z,100125.34
2019-05-25T07:53:35.965Z,100118.44
2019-05-25T07:56:07.981Z,100116.66
2019-05-25T07:58:39.765Z,100110.94
2019-05-25T08:01:11.663Z,100117.95
2019-05-25T08:03:43.934Z,100114.24
2019-05-25T08:06:16.264Z,100111.52
2019-05-25T08:08:48.046Z,100114.70
2019-05-25T08:11:20.073Z,100110.89
2019-05-25T08:13:51.832Z,100114.94
2019-05-25T08:16:23.891Z,100110.84
2019-05-25T08:18:55.696Z,100110.36
2019-05-25T08:21:27.954Z,100111.41
2019-05-25T08:23:59.743Z,100110.28
2019-05-25T08:26:31.849Z,100118.37
2019-05-25T08:29:03.730Z,100112.15
2019-05-25T08:31:35.725Z,100110.98
2019-05-25T08:34:07.571Z,100113.09
2019-05-25T08:36:39.735Z,100108.66
2019-05-25T08:39:11.571Z,100111.36
2019-05-25T08:41:45.610Z,100108.05
2019-05-25T08:44:17.368Z,100106.36
2019-05-25T08:46:49.510Z,100108.30
2019-05-25T08:49:21.336Z,100102.03
2019-05-25T08:51:54.988Z,100105.63
2019-05-25T08:54:27.038Z,100106.92
2019-05-25T08:56:59.006Z,100115.81
2019-05-25T08:59:30.877Z,100117.34
2019-05-25T09:02:02.779Z,100104.56
2019-05-25T09:04:34.714Z,100112.41
2019-05-25T09:07:07.073Z,100113.30
2019-05-25T09:09:38.927Z,100104.34
2019-05-25T09:12:10.791Z,100112.02
2019-05-25T09:14:42.577Z,100106.88
2019-05-25T09:17:14.714Z,100104.69
2019-05-25T09:19:46.601Z,100102.54
2019-05-25T09:22:19.161Z,100113.23
2019-05-25T09:24:51.049Z,100103.85
2019-05-25T09:27:23.074Z,100103.36
2019-05-25T09:29:54.914Z,100099.66
2019-05-25T09:32:26.819Z,100101.45
2019-05-25T09:34:58.633Z,100107.83
2019-05-25T09:37:30.937Z,100099.28
2019-05-25T09:40:02.875Z,100104.52
2019-05-25T09:42:34.783Z,100101.00
2019-05-25T09:45:08.569Z,100102.59
2019-05-25T09:47:40.401Z,100104.16
2019-05-25T09:50:14.162Z,100096.01
2019-05-25T09:52:46.494Z,100102.84
2019-05-25T09:55:18.633Z,100106.49
2019-05-25T09:57:50.749Z,100098.61
2019-05-25T10:00:23.290Z,100103.95
2019-05-25T10:02:55.416Z,100105.11
2019-05-25T10:05:28.509Z,100102.84
2019-05-25T10:08:01.244Z,100101.07
2019-05-25T10:10:33.143Z,100099.50
2019-05-25T10:13:05.162Z,100098.81
2019-05-25T10:15:36.970Z,100100.91
2019-05-25T10:18:08.878Z,100104.26
2019-05-25T10:20:42.034Z,100105.45
2019-05-25T10:23:14.497Z,100107.02
2019-05-25T10:25:46.584Z,100098.58
2019-05-25T10:28:18.920Z,100098.13
2019-05-25T10:30:51.640Z,100109.06
2019-05-25T10:33:23.680Z,100103.79
2019-05-25T10:35:55.469Z,100094.20
2019-05-25T10:38:27.771Z,100083.64
2019-05-25T10:40:59.555Z,100089.88
2019-05-25T10:43:31.617Z,100088.80
2019-05-25T10:46:03.420Z,100085.25
2019-05-25T10:48:35.457Z,100079.09
2019-05-25T10:51:07.356Z,100077.83
2019-05-25T10:53:39.402Z,100077.91
2019-05-25T10:56:11.305Z,100078.53
2019-05-25T10:58:43.495Z,100071.16
2019-05-25T11:01:15.331Z,100072.63
2019-05-25T11:03:47.343Z,100065.83
2019-05-25T11:06:19.416Z,100074.63
2019-05-25T11:08:51.577Z,100056.34
2019-05-25T11:11:23.457Z,100066.60
2019-05-25T11:13:55.318Z,100055.31
2019-05-25T11:16:27.197Z,100058.47
2019-05-25T11:19:00.257Z,100060.13
2019-05-25T11:21:32.125Z,100056.53
2019-05-25T11:24:04.576Z,100049.99
2019-05-25T11:26:36.387Z,100050.13
2019-05-25T11:29:08.532Z,100047.97
2019-05-25T11:31:40.350Z,100051.48
2019-05-25T11:34:12.289Z,100043.18
2019-05-25T11:36:44.067Z,100044.45
2019-05-25T11:39:16.218Z,100041.04
2019-05-25T11:41:48.312Z,100036.48
2019-05-25T11:44:20.382Z,100036.86
2019-05-25T11:46:52.170Z,100034.75
2019-05-25T11:49:24.281Z,100042.38
2019-05-25T11:51:56.061Z,100037.21
2019-05-25T11:54:28.098Z,100033.65
2019-05-25T11:56:59.871Z,100036.27
2019-05-25T11:59:31.966Z,100026.27
2019-05-25T12:02:03.967Z,100017.38
2019-05-25T12:04:36.118Z,100018.75
2019-05-25T12:07:08.015Z,100024.73
2019-05-25T12:09:40.427Z,100021.89
2019-05-25T12:12:12.268Z,100022.69
2019-05-25T12:14:44.251Z,100025.51
2019-05-25T12:17:16.040Z,100023.97
2019-05-25T12:19:55.672Z,100024.78
2019-05-25T12:22:26.187Z,100032.85
2019-05-25T12:24:58.563Z,100033.06
2019-05-25T12:27:30.368Z,100039.70
2019-05-25T12:30:02.507Z,100029.67
2019-05-25T12:32:34.661Z,100025.77
2019-05-25T12:35:08.137Z,100026.97
2019-05-25T12:37:39.920Z,100024.77
2019-05-25T12:40:12.587Z,100014.23
2019-05-25T12:42:45.981Z,100028.98
2019-05-25T12:45:18.331Z,100026.45
2019-05-25T12:47:50.152Z,100015.01
2019-05-25T12:50:22.719Z,100022.91
2019-05-25T12:52:54.471Z,100022.00
2019-05-25T12:55:26.862Z,100024.63
2019-05-25T12:57:59.638Z,100026.45
2019-05-25T13:00:32.008Z,100020.83
2019-05-25T13:03:03.962Z,100009.47
2019-05-25T13:05:36.551Z,100022.80
2019-05-25T13:08:08.409Z,100026.38
2019-05-25T13:10:40.585Z,100020.39
2019-05-25T13:13:12.505Z,100020.02
2019-05-25T13:15:45.180Z,100022.05
2019-05-25T13:18:17.412Z,100019.23
2019-05-25T13:20:49.950Z,100025.04
2019-05-25T13:23:22.554Z,100016.00
2019-05-25T13:25:55.207Z,100013.49
2019-05-25T13:28:27.247Z,100022.87
2019-05-25T13:31:11.289Z,100021.70
2019-05-25T13:33:33.360Z,100030.22
2019-05-25T13:36:05.794Z,100019.22
2019-05-25T13:38:38.262Z,100028.97
2019-05-25T13:41:10.961Z,100022.06
2019-05-25T13:43:43.284Z,100031.91
2019-05-25T13:46:15.962Z,100029.35
2019-05-25T13:48:48.450Z,100029.56
2019-05-25T13:51:20.410Z,100024.13
2019-05-25T13:53:52.351Z,100023.73
2019-05-25T13:56:24.389Z,100030.11
2019-05-25T13:58:56.429Z,100027.26
2019-05-25T14:01:29.057Z,100017.67
2019-05-25T14:04:01.216Z,100019.72
2019-05-25T14:06:33.497Z,100021.63
2019-05-25T14:09:06.756Z,100024.82
2019-05-25T14:11:39.085Z,100027.02
2019-05-25T14:14:11.111Z,100025.38
2019-05-25T14:30:32.986Z,100014.66
2019-05-25T14:33:05.337Z,100012.66
2019-05-25T14:35:37.441Z,100032.88
2019-05-25T14:38:09.347Z,100015.88
2019-05-25T14:53:53.000Z,100016.09
2019-05-25T14:56:24.754Z,100015.98
2019-05-25T14:58:56.782Z,100017.61
2019-05-25T15:01:28.836Z,100011.02
2019-05-25T15:04:00.949Z,100013.70
2019-05-25T15:06:32.793Z,100008.56
2019-05-25T15:09:06.498Z,100021.68
2019-05-25T15:11:38.424Z,100008.12
2019-05-25T15:14:10.337Z,100019.28
2019-05-25T15:16:42.399Z,100008.05
2019-05-25T15:19:14.368Z,100016.59
2019-05-25T15:21:46.469Z,100004.05
2019-05-25T15:24:18.413Z,100011.43
2019-05-25T15:26:50.217Z,100008.19
2019-05-25T15:29:22.380Z,100013.94
2019-05-25T15:31:54.835Z,100012.72
2019-05-25T15:34:27.994Z,100009.28
2019-05-25T15:36:59.910Z,100008.09
2019-05-25T15:39:32.024Z,100008.31
2019-05-25T15:42:03.891Z,100015.83
2019-05-25T15:44:35.935Z,100011.97
2019-05-25T15:47:07.861Z,100004.61
2019-05-25T15:49:41.464Z,100012.23
2019-05-25T15:52:13.335Z,100013.33
2019-05-25T15:54:45.632Z,100007.95
2019-05-25T15:57:17.470Z,100013.56
2019-05-25T15:59:49.528Z,100010.70
2019-05-25T16:02:35.648Z,100012.16
2019-05-25T16:04:55.108Z,100011.27
2019-05-25T16:07:27.065Z,100012.24
2019-05-25T16:09:59.068Z,100012.69
2019-05-25T16:12:30.903Z,100006.80
2019-05-25T16:15:03.091Z,100013.30
2019-05-25T16:17:35.357Z,100008.12
2019-05-25T16:20:08.727Z,100013.20
2019-05-25T16:22:40.778Z,100009.81
2019-05-25T16:25:12.728Z,100017.04
2019-05-25T16:27:44.547Z,100015.23
2019-05-25T16:30:17.159Z,100010.03
2019-05-25T16:35:23.110Z,100017.14
2019-05-25T16:37:55.333Z,100011.30
2019-05-25T16:40:27.543Z,100016.64
2019-05-25T16:42:59.326Z,100017.84
2019-05-25T16:45:31.268Z,100016.23
2019-05-25T16:48:03.576Z,100015.78
2019-05-25T16:50:35.791Z,100016.26
2019-05-25T16:53:07.730Z,100017.54
2019-05-25T16:55:39.914Z,100023.41
2019-05-25T16:58:11.765Z,100025.95
2019-05-25T17:00:43.658Z,100021.85
2019-05-25T17:03:27.692Z,100023.91
2019-05-25T17:05:49.810Z,100026.95
2019-05-25T17:08:21.679Z,100032.02
2019-05-25T17:10:53.505Z,100039.52
2019-05-25T17:13:25.717Z,100047.30
2019-05-25T17:15:57.924Z,100050.71
2019-05-25T17:18:29.850Z,100052.09
2019-05-25T17:21:01.902Z,100058.30
2019-05-25T17:23:33.958Z,100057.61
2019-05-25T17:26:06.150Z,100062.95
2019-05-25T17:28:38.017Z,100059.15
2019-05-25T17:31:09.872Z,100060.81
2019-05-25T17:33:45.793Z,100065.56
2019-05-25T17:36:15.476Z,100063.91
2019-05-25T17:38:47.364Z,100074.71
2019-05-25T17:41:19.207Z,100072.32
2019-05-25T17:43:51.017Z,100076.75
2019-05-25T17:46:22.983Z,100076.23
2019-05-25T17:48:55.090Z,100074.65
2019-05-25T17:51:27.048Z,100083.56
2019-05-25T17:53:58.878Z,100079.49
2019-05-25T17:56:30.936Z,100085.38
2019-05-25T17:59:02.722Z,100082.59
2019-05-25T18:01:34.872Z,100087.02
2019-05-25T18:04:08.035Z,100089.84
2019-05-25T18:06:40.531Z,100091.05
2019-05-25T18:09:12.341Z,100094.05
2019-05-25T18:11:44.577Z,100102.09
2019-05-25T18:14:16.412Z,100097.25
2019-05-25T18:16:48.600Z,100102.09
2019-05-25T18:19:20.427Z,100105.77
2019-05-25T18:21:52.510Z,100106.38
2019-05-25T18:24:24.294Z,100118.73
2019-05-25T18:26:56.467Z,100120.70
2019-05-25T18:29:28.290Z,100117.34
2019-05-25T18:32:00.262Z,100117.99
2019-05-25T18:34:32.426Z,100120.47
2019-05-25T18:37:04.536Z,100123.62
2019-05-25T18:39:36.416Z,100127.77
2019-05-25T18:42:08.387Z,100128.56
2019-05-25T18:44:40.194Z,100128.41
2019-05-25T18:47:12.258Z,100130.72
2019-05-25T18:49:44.187Z,100124.81
2019-05-25T18:52:16.397Z,100130.80
2019-05-25T18:54:48.271Z,100136.08
2019-05-25T18:57:20.647Z,100136.22
2019-05-25T18:59:52.729Z,100140.33
2019-05-25T19:02:24.978Z,100136.98
2019-05-25T19:04:59.919Z,100145.37
2019-05-25T19:07:31.060Z,100150.33
2019-05-25T19:10:02.878Z,100143.16
2019-05-25T19:12:34.869Z,100148.77
2019-05-25T19:15:08.879Z,100146.72
2019-05-25T19:17:41.238Z,100147.73
2019-05-25T19:20:21.010Z,100157.84
2019-05-25T19:22:50.246Z,100163.55
2019-05-25T19:25:22.085Z,100163.68
2019-05-25T19:27:53.939Z,100163.77
2019-05-25T19:30:26.174Z,100161.73
2019-05-25T19:32:58.371Z,100166.37
2019-05-25T19:35:30.312Z,100167.33
2019-05-25T19:38:02.202Z,100167.98
2019-05-25T19:40:34.133Z,100173.89
2019-05-25T19:43:06.084Z,100179.50
2019-05-25T19:45:37.913Z,100179.83
2019-05-25T19:48:09.924Z,100175.40
2019-05-25T19:50:42.159Z,100185.47
2019-05-25T19:53:15.589Z,100181.38
2019-05-25T19:55:47.717Z,100180.46
2019-05-25T19:58:20.028Z,100184.73
2019-05-25T20:00:51.880Z,100177.35
2019-05-25T20:03:23.842Z,100177.96
2019-05-25T20:05:55.970Z,100185.97
2019-05-25T20:08:27.801Z,100183.20
2019-05-25T20:10:59.601Z,100186.03
2019-05-25T20:13:31.488Z,100184.91
2019-05-25T20:16:03.545Z,100189.64
2019-05-25T20:18:35.843Z,100195.65
2019-05-25T20:21:08.088Z,100193.05
2019-05-25T20:23:40.109Z,100195.07
2019-05-25T20:26:11.883Z,100199.83
2019-05-25T20:28:44.108Z,100204.72
2019-05-25T20:31:15.981Z,100205.77
2019-05-25T20:33:47.896Z,100210.03
2019-05-25T20:36:19.926Z,100210.39
2019-05-25T20:38:52.086Z,100207.33
2019-05-25T20:41:24.030Z,100215.72
2019-05-25T20:43:55.924Z,100222.62
2019-05-25T20:46:27.737Z,100218.09
2019-05-25T20:48:59.721Z,100222.66
2019-05-25T20:51:31.726Z,100224.76
2019-05-25T20:54:03.672Z,100216.83
2019-05-25T20:56:35.647Z,100226.74
2019-05-25T20:59:08.221Z,100222.21
2019-05-25T21:01:41.103Z,100222.05
2019-05-25T21:04:13.352Z,100218.65
2019-05-25T21:06:45.406Z,100221.77
2019-05-25T21:09:17.689Z,100228.22
2019-05-25T21:11:49.485Z,100233.91
2019-05-25T21:14:21.699Z,100229.50
2019-05-25T21:16:53.486Z,100233.67
2019-05-25T21:19:25.629Z,100239.88
2019-05-25T21:21:57.528Z,100243.41
2019-05-25T21:24:29.668Z,100239.00
2019-05-25T21:27:01.671Z,100246.86
2019-05-25T21:29:33.895Z,100243.52
2019-05-25T21:32:05.672Z,100248.00
2019-05-25T21:34:37.722Z,100247.17
2019-05-25T21:37:09.808Z,100250.69
2019-05-25T21:39:41.636Z,100242.81
2019-05-25T21:42:13.453Z,100255.22
2019-05-25T21:44:45.468Z,100248.16
2019-05-25T21:47:17.282Z,100246.14
2019-05-25T21:49:49.406Z,100250.12
2019-05-25T21:52:21.715Z,100250.30
2019-05-25T21:54:53.849Z,100255.09
2019-05-25T21:57:25.716Z,100249.34
2019-05-25T21:59:57.970Z,100252.65
2019-05-25T22:02:29.743Z,100257.48
2019-05-25T22:05:01.626Z,100252.94
2019-05-25T22:07:33.744Z,100253.22
2019-05-25T22:10:06.302Z,100253.46
2019-05-25T22:12:40.223Z,100255.52
2019-05-25T22:15:12.409Z,100256.50
2019-05-25T22:17:44.228Z,100255.58
2019-05-25T22:20:16.566Z,100258.22
2019-05-25T22:22:48.666Z,100249.25
2019-05-25T22:25:20.656Z,100246.85
2019-05-25T22:27:53.018Z,100255.75
2019-05-25T22:30:24.874Z,100254.08
2019-05-25T22:32:56.614Z,100258.77
2019-05-25T22:35:28.644Z,100254.68
2019-05-25T22:38:00.647Z,100257.81
2019-05-25T22:40:32.580Z,100257.93
2019-05-25T22:43:04.344Z,100263.94
2019-05-25T22:45:36.418Z,100265.62
2019-05-25T22:48:08.337Z,100261.93
2019-05-25T22:50:40.413Z,100259.39
2019-05-25T22:53:12.422Z,100261.81
2019-05-25T22:55:44.443Z,100260.47
2019-05-25T22:58:16.261Z,100260.22
2019-05-25T23:00:48.392Z,100262.04
2019-05-25T23:03:20.244Z,100252.78
2019-05-25T23:05:52.312Z,100253.63
2019-05-25T23:08:24.685Z,100266.81
2019-05-25T23:10:56.501Z,100266.70
2019-05-25T23:13:28.377Z,100261.77
2019-05-25T23:16:00.187Z,100272.22
2019-05-25T23:18:32.098Z,100272.30
2019-05-25T23:21:04.296Z,100277.58
2019-05-25T23:23:36.323Z,100273.25
2019-05-25T23:26:08.148Z,100272.16
2019-05-25T23:28:40.003Z,100268.58
2019-05-25T23:31:11.902Z,100279.36
2019-05-25T23:33:43.727Z,100276.95
2019-05-25T23:36:16.889Z,100279.47
2019-05-25T23:38:48.921Z,100281.23
2019-05-25T23:41:21.029Z,100276.56
2019-05-25T23:43:52.922Z,100284.36
2019-05-25T23:46:25.045Z,100287.11
2019-05-25T23:48:56.845Z,100278.94
2019-05-25T23:51:28.887Z,100274.27
2019-05-25T23:54:00.990Z,100270.79
2019-05-25T23:56:32.813Z,100270.64
2019-05-25T23:59:04.617Z,100270.25
